createdAt,value
2017-10-14T00:01:07.412Z,21.70
2017-10-14T00:03:34.055Z,22.87
2017-10-14T00:06:00.736Z,22.77
2017-10-14T00:08:27.415Z,24.33
2017-10-14T00:10:54.073Z,29.97
2017-10-14T00:13:20.735Z,37.67
2017-10-14T00:15:47.401Z,32.37
2017-10-14T00:18:14.048Z,30.97
2017-10-14T00:20:40.741Z,23.40
2017-10-14T00:23:07.415Z,22.07
2017-10-14T00:25:34.069Z,23.20
2017-10-14T00:28:00.746Z,26.67
2017-10-14T00:30:27.502Z,29.40
2017-10-14T00:32:54.187Z,23.20
2017-10-14T00:35:20.864Z,42.97
2017-10-14T00:37:47.521Z,21.63
2017-10-14T00:40:14.214Z,25.57
2017-10-14T00:42:40.861Z,23.60
2017-10-14T00:45:07.509Z,30.70
2017-10-14T00:47:34.176Z,27.53
2017-10-14T00:50:00.858Z,27.10
2017-10-14T00:52:27.535Z,26.20
2017-10-14T00:54:54.197Z,30.63
2017-10-14T00:57:20.851Z,19.13
2017-10-14T00:59:47.536Z,20.87
2017-10-14T01:02:14.218Z,19.87
2017-10-14T01:04:40.868Z,25.70
2017-10-14T01:07:07.576Z,26.37
2017-10-14T01:09:34.234Z,45.43
2017-10-14T01:12:00.880Z,32.37
2017-10-14T01:14:27.548Z,29.00
2017-10-14T01:16:54.201Z,23.37
2017-10-14T01:19:20.848Z,24.10
2017-10-14T01:21:47.529Z,18.10
2017-10-14T01:24:14.223Z,34.07
2017-10-14T01:26:40.875Z,30.10
2017-10-14T01:29:07.553Z,23.43
2017-10-14T01:31:34.220Z,25.97
2017-10-14T01:34:00.874Z,24.03
2017-10-14T01:36:27.859Z,23.17
2017-10-14T01:38:54.532Z,20.30
2017-10-14T01:41:21.219Z,29.17
2017-10-14T01:43:47.881Z,22.20
2017-10-14T01:46:14.550Z,25.10
2017-10-14T01:48:41.230Z,28.93
2017-10-14T01:51:07.888Z,40.53
2017-10-14T01:53:34.579Z,35.07
2017-10-14T01:56:01.229Z,28.50
2017-10-14T01:58:27.882Z,49.13
2017-10-14T02:00:54.564Z,25.27
2017-10-14T02:03:21.207Z,29.20
2017-10-14T02:05:47.855Z,33.20
2017-10-14T02:08:14.543Z,28.43
2017-10-14T02:10:41.198Z,32.10
2017-10-14T02:13:07.877Z,28.40
2017-10-14T02:15:34.529Z,35.87
2017-10-14T02:18:01.226Z,34.33
2017-10-14T02:20:27.877Z,34.07
2017-10-14T02:22:54.536Z,30.73
2017-10-14T02:25:21.357Z,33.13
2017-10-14T02:27:48.019Z,31.13
2017-10-14T02:30:14.698Z,26.97
2017-10-14T02:32:41.364Z,25.90
2017-10-14T02:35:08.020Z,36.97
2017-10-14T02:37:34.695Z,30.33
2017-10-14T02:40:01.344Z,27.40
2017-10-14T02:42:28.025Z,28.93
2017-10-14T02:44:54.673Z,35.10
2017-10-14T02:47:21.344Z,38.53
2017-10-14T02:49:48.017Z,35.50
2017-10-14T02:52:14.669Z,28.67
2017-10-14T02:54:41.343Z,23.97
2017-10-14T02:57:07.995Z,32.80
2017-10-14T02:59:34.702Z,22.73
2017-10-14T03:02:01.360Z,27.13
2017-10-14T03:04:28.017Z,26.87
2017-10-14T03:06:54.699Z,32.23
2017-10-14T03:09:21.349Z,33.17
2017-10-14T03:11:48.014Z,34.20
2017-10-14T03:14:14.668Z,25.70
2017-10-14T03:16:41.323Z,29.63
2017-10-14T03:19:07.992Z,30.40
2017-10-14T03:21:34.636Z,23.23
2017-10-14T03:24:01.291Z,35.60
2017-10-14T03:26:28.086Z,29.53
2017-10-14T03:28:54.736Z,33.30
2017-10-14T03:31:21.385Z,20.60
2017-10-14T03:33:48.056Z,19.43
2017-10-14T03:36:14.701Z,25.17
2017-10-14T03:38:41.386Z,26.13
2017-10-14T03:41:08.241Z,27.07
2017-10-14T03:43:34.919Z,19.37
2017-10-14T03:46:01.593Z,24.00
2017-10-14T03:48:28.277Z,19.03
2017-10-14T03:50:54.927Z,28.20
2017-10-14T03:53:21.572Z,30.53
2017-10-14T03:55:48.250Z,28.53
2017-10-14T03:58:14.944Z,179.33
2017-10-14T04:00:41.589Z,63.37
2017-10-14T04:03:08.259Z,86.83
2017-10-14T04:05:34.936Z,42.07
2017-10-14T04:08:01.593Z,38.53
2017-10-14T04:10:28.268Z,43.40
2017-10-14T04:12:54.948Z,83.50
2017-10-14T04:15:21.604Z,34.50
2017-10-14T04:17:48.261Z,27.93
2017-10-14T04:20:14.939Z,26.43
2017-10-14T04:22:41.598Z,29.27
2017-10-14T04:25:08.279Z,32.20
2017-10-14T04:27:34.925Z,35.10
2017-10-14T04:30:01.615Z,26.30
2017-10-14T04:32:28.259Z,22.57
2017-10-14T04:34:54.908Z,27.90
2017-10-14T04:37:21.695Z,26.73
2017-10-14T04:39:48.340Z,30.27
2017-10-14T04:42:15.035Z,29.90
2017-10-14T04:44:41.716Z,25.30
2017-10-14T04:47:08.398Z,23.63
2017-10-14T04:49:35.047Z,33.07
2017-10-14T04:52:01.702Z,25.07
2017-10-14T04:54:28.381Z,26.97
2017-10-14T04:56:55.028Z,33.53
2017-10-14T04:59:21.715Z,33.77
2017-10-14T05:01:48.365Z,30.60
2017-10-14T05:04:15.074Z,25.20
2017-10-14T05:13:24.435Z,22.70
2017-10-14T05:15:51.080Z,26.27
2017-10-14T05:18:18.126Z,31.10
2017-10-14T05:20:44.811Z,37.70
2017-10-14T05:23:11.488Z,22.93
2017-10-14T05:25:38.160Z,26.80
2017-10-14T05:28:04.811Z,22.90
2017-10-14T05:30:31.486Z,29.30
2017-10-14T05:32:58.236Z,28.00
2017-10-14T05:35:24.888Z,24.83
2017-10-14T05:37:51.559Z,25.37
2017-10-14T05:40:18.207Z,21.70
2017-10-14T05:42:44.888Z,26.27
2017-10-14T05:45:11.541Z,37.23
2017-10-14T05:47:38.199Z,37.07
2017-10-14T05:50:04.884Z,24.00
2017-10-14T05:52:31.562Z,27.47
2017-10-14T05:54:58.217Z,29.37
2017-10-14T05:57:24.913Z,32.50
2017-10-14T05:59:51.560Z,34.47
2017-10-14T06:02:18.233Z,35.23
2017-10-14T06:04:44.889Z,23.87
2017-10-14T06:07:11.568Z,62.03
2017-10-14T06:09:38.212Z,31.53
2017-10-14T06:12:04.885Z,29.73
2017-10-14T06:14:31.528Z,28.37
2017-10-14T06:16:58.180Z,36.53
2017-10-14T06:19:24.861Z,54.97
2017-10-14T06:21:51.795Z,51.00
2017-10-14T06:24:18.504Z,33.33
2017-10-14T06:26:45.164Z,37.47
2017-10-14T06:35:54.411Z,148.63
2017-10-14T06:38:21.126Z,101.30
2017-10-14T06:40:47.794Z,84.83
2017-10-14T06:43:14.457Z,56.33
2017-10-14T06:45:41.141Z,29.33
2017-10-14T06:48:07.812Z,31.20
2017-10-14T06:50:34.469Z,25.93
2017-10-14T06:53:01.141Z,27.80
2017-10-14T06:55:27.810Z,26.40
2017-10-14T06:57:54.466Z,31.83
2017-10-14T07:00:21.146Z,26.73
2017-10-14T07:02:47.824Z,28.97
2017-10-14T07:05:14.475Z,49.93
2017-10-14T07:07:41.116Z,51.87
2017-10-14T07:10:07.789Z,30.07
2017-10-14T07:12:34.444Z,30.00
2017-10-14T07:15:01.130Z,26.57
2017-10-14T07:17:27.781Z,32.13
2017-10-14T07:19:54.429Z,34.50
2017-10-14T07:22:21.110Z,44.83
2017-10-14T07:24:47.764Z,64.87
2017-10-14T07:27:14.462Z,81.73
2017-10-14T07:29:41.202Z,138.07
2017-10-14T07:32:07.897Z,117.63
2017-10-14T07:34:34.570Z,122.57
2017-10-14T07:37:01.233Z,128.93
2017-10-14T07:39:27.906Z,134.40
2017-10-14T07:41:54.588Z,109.20
2017-10-14T07:44:21.292Z,111.27
2017-10-14T07:46:47.966Z,122.20
2017-10-14T07:49:14.626Z,125.60
2017-10-14T07:51:41.308Z,110.53
2017-10-14T07:54:07.963Z,109.03
2017-10-14T07:56:34.652Z,127.43
2017-10-14T07:59:01.391Z,136.97
2017-10-14T08:01:28.056Z,139.33
2017-10-14T08:03:54.709Z,147.67
2017-10-14T08:06:21.400Z,142.53
2017-10-14T08:08:48.062Z,137.77
2017-10-14T08:11:14.728Z,155.23
2017-10-14T08:13:41.396Z,146.73
2017-10-14T08:16:08.061Z,137.93
2017-10-14T08:18:34.735Z,138.03
2017-10-14T08:21:01.403Z,127.10
2017-10-14T08:23:28.081Z,105.00
2017-10-14T08:25:54.772Z,117.10
2017-10-14T08:28:21.424Z,118.57
2017-10-14T08:30:48.079Z,104.07
2017-10-14T08:33:14.751Z,156.03
2017-10-14T08:35:41.413Z,137.90
2017-10-14T08:38:08.097Z,157.03
2017-10-14T08:40:34.792Z,129.93
2017-10-14T08:43:01.452Z,118.87
2017-10-14T08:45:28.140Z,110.40
2017-10-14T08:47:54.800Z,108.03
2017-10-14T08:50:21.462Z,128.37
2017-10-14T08:52:48.157Z,119.20
2017-10-14T08:55:14.827Z,117.67
2017-10-14T08:57:41.481Z,115.83
2017-10-14T09:00:08.151Z,108.23
2017-10-14T09:02:34.804Z,100.80
2017-10-14T09:05:01.467Z,124.83
2017-10-14T09:07:28.153Z,140.83
2017-10-14T09:09:54.807Z,102.63
2017-10-14T09:12:21.491Z,108.10
2017-10-14T09:14:48.173Z,103.13
2017-10-14T09:17:14.832Z,100.13
2017-10-14T09:19:41.513Z,100.97
2017-10-14T09:22:08.179Z,102.83
2017-10-14T09:24:34.840Z,125.03
2017-10-14T09:27:01.526Z,108.20
2017-10-14T09:29:28.188Z,110.27
2017-10-14T09:31:54.864Z,96.17
2017-10-14T09:34:21.537Z,89.87
2017-10-14T09:36:48.188Z,74.47
2017-10-14T09:39:14.890Z,94.07
2017-10-14T09:41:41.548Z,61.47
2017-10-14T09:44:08.187Z,56.37
2017-10-14T09:46:34.861Z,58.53
2017-10-14T09:49:01.513Z,83.73
2017-10-14T09:51:28.190Z,79.17
2017-10-14T09:53:54.842Z,65.83
2017-10-14T09:56:21.489Z,59.70
2017-10-14T09:58:48.157Z,51.23
2017-10-14T10:01:14.820Z,45.03
2017-10-14T10:03:41.496Z,44.70
2017-10-14T10:06:08.184Z,58.77
2017-10-14T10:08:34.831Z,58.33
2017-10-14T10:11:01.480Z,45.43
2017-10-14T10:13:28.158Z,47.90
2017-10-14T10:15:54.825Z,43.97
2017-10-14T10:18:21.508Z,36.30
2017-10-14T10:20:48.201Z,40.80
2017-10-14T10:23:14.885Z,40.77
2017-10-14T10:25:41.539Z,38.43
2017-10-14T10:28:08.209Z,38.57
2017-10-14T10:30:34.880Z,32.40
2017-10-14T10:33:01.551Z,26.60
2017-10-14T10:35:28.220Z,34.30
2017-10-14T10:37:54.901Z,36.13
2017-10-14T10:40:21.568Z,36.67
2017-10-14T10:42:48.244Z,31.57
2017-10-14T10:45:14.894Z,29.23
2017-10-14T10:47:41.541Z,34.70
2017-10-14T10:50:08.212Z,23.50
2017-10-14T10:52:34.865Z,32.57
2017-10-14T10:55:01.539Z,22.97
2017-10-14T10:57:28.205Z,27.80
2017-10-14T10:59:54.892Z,31.90
2017-10-14T11:02:21.543Z,25.67
2017-10-14T11:04:48.204Z,25.83
2017-10-14T11:07:14.869Z,25.67
2017-10-14T11:09:41.516Z,27.60
2017-10-14T11:12:08.186Z,19.27
2017-10-14T11:14:34.836Z,28.40
2017-10-14T11:17:01.516Z,28.03
2017-10-14T11:19:28.163Z,26.00
2017-10-14T11:21:54.840Z,20.83
2017-10-14T11:24:21.507Z,24.73
2017-10-14T11:26:48.175Z,19.43
2017-10-14T11:29:14.826Z,12.73
2017-10-14T11:31:41.508Z,20.50
2017-10-14T11:34:08.172Z,13.53
2017-10-14T11:36:34.828Z,22.77
2017-10-14T11:39:01.505Z,11.00
2017-10-14T11:41:28.144Z,9.90
2017-10-14T11:43:54.788Z,9.53
2017-10-14T11:46:21.451Z,8.40
2017-10-14T11:48:48.121Z,12.63
2017-10-14T11:51:14.795Z,14.33
2017-10-14T11:53:41.451Z,9.73
2017-10-14T11:56:08.195Z,12.30
2017-10-14T11:58:34.871Z,11.10
2017-10-14T12:01:01.515Z,7.60
2017-10-14T12:03:28.200Z,7.50
2017-10-14T12:05:54.844Z,10.70
2017-10-14T12:08:21.479Z,6.23
2017-10-14T12:10:48.141Z,7.63
2017-10-14T12:13:14.786Z,6.30
2017-10-14T12:15:41.429Z,5.70
2017-10-14T12:18:08.101Z,8.73
2017-10-14T12:20:34.766Z,10.70
2017-10-14T12:23:01.444Z,7.57
2017-10-14T12:25:28.190Z,16.97
2017-10-14T12:27:54.860Z,4.70
2017-10-14T12:30:21.507Z,7.90
2017-10-14T12:32:48.186Z,4.67
2017-10-14T12:35:14.838Z,4.77
2017-10-14T12:37:41.503Z,3.77
2017-10-14T12:40:08.140Z,3.33
2017-10-14T12:42:34.784Z,2.77
2017-10-14T12:45:01.460Z,5.70
2017-10-14T12:47:28.101Z,3.20
2017-10-14T12:49:54.745Z,3.50
2017-10-14T12:52:21.421Z,4.20
2017-10-14T12:54:48.089Z,4.00
2017-10-14T12:57:14.730Z,2.80
2017-10-14T12:59:41.368Z,3.37
2017-10-14T13:02:08.032Z,3.90
2017-10-14T13:04:34.692Z,9.40
2017-10-14T13:07:01.495Z,2.47
2017-10-14T13:09:28.133Z,2.47
2017-10-14T13:11:54.776Z,3.30
2017-10-14T13:14:21.445Z,3.00
2017-10-14T13:16:48.085Z,7.40
2017-10-14T13:19:14.756Z,5.60
2017-10-14T13:21:41.438Z,2.60
2017-10-14T13:24:08.081Z,3.40
2017-10-14T13:26:34.720Z,2.53
2017-10-14T13:29:01.392Z,2.50
2017-10-14T13:31:28.036Z,3.13
2017-10-14T13:33:54.687Z,6.60
2017-10-14T13:36:21.357Z,8.97
2017-10-14T13:38:48.021Z,2.20
2017-10-14T13:41:14.664Z,2.40
2017-10-14T13:43:41.315Z,2.93
2017-10-14T13:46:08.258Z,3.97
2017-10-14T13:48:34.921Z,2.77
2017-10-14T13:51:01.589Z,2.03
2017-10-14T13:53:28.235Z,3.30
2017-10-14T13:55:54.876Z,2.67
2017-10-14T13:58:21.545Z,2.50
2017-10-14T14:00:48.210Z,2.90
2017-10-14T14:03:14.859Z,3.93
2017-10-14T14:05:41.521Z,3.43
2017-10-14T14:08:08.174Z,3.37
2017-10-14T14:10:34.845Z,2.90
2017-10-14T14:13:01.492Z,3.13
2017-10-14T14:15:28.156Z,3.47
2017-10-14T14:17:54.796Z,2.70
2017-10-14T14:20:21.468Z,3.67
2017-10-14T14:22:48.132Z,3.10
2017-10-14T14:25:14.799Z,4.23
2017-10-14T14:27:41.477Z,3.83
2017-10-14T14:30:08.140Z,4.03
2017-10-14T14:32:34.810Z,3.00
2017-10-14T14:35:01.460Z,4.90
2017-10-14T14:37:28.123Z,3.87
2017-10-14T14:39:54.764Z,4.67
2017-10-14T14:42:21.428Z,8.37
2017-10-14T14:44:48.111Z,5.60
2017-10-14T14:47:14.788Z,5.53
2017-10-14T14:49:41.428Z,9.03
2017-10-14T14:52:08.077Z,9.97
2017-10-14T14:54:34.741Z,5.63
2017-10-14T14:57:01.413Z,7.37
2017-10-14T14:59:28.991Z,5.93
2017-10-14T15:01:55.653Z,5.80
2017-10-14T15:04:22.299Z,7.93
2017-10-14T15:06:48.976Z,13.80
2017-10-14T15:09:15.653Z,16.47
2017-10-14T15:11:42.316Z,9.57
2017-10-14T15:14:08.960Z,8.10
2017-10-14T15:16:35.604Z,9.90
2017-10-14T15:19:02.297Z,12.70
2017-10-14T15:21:28.954Z,7.33
2017-10-14T15:23:55.930Z,7.07
2017-10-14T15:26:22.572Z,8.30
2017-10-14T15:28:49.225Z,10.90
2017-10-14T15:31:15.896Z,15.23
2017-10-14T15:33:42.547Z,6.73
2017-10-14T15:36:09.196Z,10.07
2017-10-14T15:38:35.863Z,7.77
2017-10-14T15:41:02.532Z,9.53
2017-10-14T15:43:29.201Z,6.70
2017-10-14T15:45:55.839Z,6.30
2017-10-14T15:48:22.480Z,9.83
2017-10-14T15:50:49.174Z,14.10
2017-10-14T15:53:15.927Z,6.50
2017-10-14T15:55:42.570Z,8.03
2017-10-14T15:58:09.213Z,7.97
2017-10-14T16:00:35.884Z,8.20
2017-10-14T16:03:02.600Z,8.23
2017-10-14T16:05:29.248Z,12.20
2017-10-14T16:07:55.889Z,9.93
2017-10-14T16:10:22.551Z,7.63
2017-10-14T16:15:33.047Z,14.10
2017-10-14T16:17:59.693Z,15.60
2017-10-14T16:20:26.367Z,18.40
2017-10-14T16:22:53.032Z,15.63
2017-10-14T16:25:19.688Z,23.27
2017-10-14T16:27:46.355Z,28.50
2017-10-14T16:30:13.036Z,17.60
2017-10-14T16:32:39.688Z,14.67
2017-10-14T16:35:06.373Z,15.87
2017-10-14T16:37:33.015Z,18.70
2017-10-14T16:39:59.656Z,9.43
2017-10-14T16:42:26.336Z,19.67
2017-10-14T16:44:52.990Z,12.83
2017-10-14T16:47:19.740Z,11.67
2017-10-14T16:49:46.423Z,13.53
2017-10-14T16:52:13.096Z,14.30
2017-10-14T16:54:39.776Z,13.33
2017-10-14T16:57:06.452Z,40.07
2017-10-14T16:59:33.127Z,25.80
2017-10-14T17:01:59.781Z,29.90
2017-10-14T17:04:26.657Z,14.97
2017-10-14T17:06:53.580Z,17.83
2017-10-14T17:09:20.226Z,55.27
2017-10-14T17:11:46.904Z,17.17
2017-10-14T17:14:13.584Z,19.03
2017-10-14T17:16:40.295Z,26.43
2017-10-14T17:19:06.943Z,15.73
2017-10-14T17:21:33.608Z,10.90
2017-10-14T17:24:00.256Z,13.67
2017-10-14T17:26:26.924Z,16.80
2017-10-14T17:28:53.580Z,13.67
2017-10-14T17:31:20.226Z,13.73
2017-10-14T17:33:46.917Z,13.77
2017-10-14T17:36:13.572Z,14.40
2017-10-14T17:38:40.236Z,14.30
2017-10-14T17:41:06.932Z,17.97
2017-10-14T17:43:33.806Z,122.47
2017-10-14T17:46:00.514Z,53.90
2017-10-14T17:48:27.173Z,15.23
2017-10-14T17:50:53.866Z,16.27
2017-10-14T17:53:20.516Z,14.90
2017-10-14T17:55:47.217Z,16.67
2017-10-14T17:58:13.860Z,18.30
2017-10-14T18:00:40.509Z,20.60
2017-10-14T18:03:07.197Z,44.13
2017-10-14T18:05:33.844Z,49.77
2017-10-14T18:08:00.501Z,37.93
2017-10-14T18:10:27.184Z,55.17
2017-10-14T18:12:53.857Z,33.90
2017-10-14T18:15:20.530Z,36.83
2017-10-14T18:17:47.200Z,18.87
2017-10-14T18:20:13.884Z,17.23
2017-10-14T18:22:40.554Z,18.83
2017-10-14T18:25:07.239Z,20.57
2017-10-14T18:27:33.917Z,20.50
2017-10-14T18:30:00.600Z,22.23
2017-10-14T18:32:27.245Z,76.13
2017-10-14T18:34:53.930Z,22.03
2017-10-14T18:37:20.619Z,26.20
2017-10-14T18:39:47.294Z,31.90
2017-10-14T18:42:13.965Z,23.17
2017-10-14T18:44:40.637Z,30.97
2017-10-14T18:47:07.307Z,22.70
2017-10-14T18:49:33.982Z,36.13
2017-10-14T18:52:00.661Z,57.70
2017-10-14T18:54:27.312Z,29.23
2017-10-14T18:56:53.993Z,26.83
2017-10-14T18:59:20.668Z,31.90
2017-10-14T19:01:47.351Z,25.57
2017-10-14T19:04:14.040Z,25.73
2017-10-14T19:06:40.715Z,26.00
2017-10-14T19:09:07.364Z,36.23
2017-10-14T19:11:34.057Z,55.90
2017-10-14T19:14:00.708Z,28.30
2017-10-14T19:16:27.356Z,35.03
2017-10-14T19:18:54.019Z,27.43
2017-10-14T19:21:20.665Z,25.83
2017-10-14T19:23:47.338Z,29.07
2017-10-14T19:26:14.017Z,32.80
2017-10-14T19:28:40.693Z,24.20
2017-10-14T19:31:07.371Z,24.67
2017-10-14T19:33:34.096Z,29.43
2017-10-14T19:36:00.768Z,24.73
2017-10-14T19:38:27.421Z,25.63
2017-10-14T19:40:54.091Z,24.43
2017-10-14T19:43:20.743Z,24.00
2017-10-14T19:45:47.428Z,27.93
2017-10-14T19:48:14.119Z,21.93
2017-10-14T19:50:40.805Z,153.33
2017-10-14T19:53:07.449Z,41.17
2017-10-14T19:55:34.100Z,26.23
2017-10-14T19:58:00.779Z,24.83
2017-10-14T20:00:27.443Z,30.40
2017-10-14T20:02:54.111Z,29.33
2017-10-14T20:05:20.763Z,26.63
2017-10-14T20:07:47.434Z,25.90
2017-10-14T20:10:14.093Z,22.87
2017-10-14T20:12:40.781Z,26.40
2017-10-14T20:15:07.458Z,21.00
2017-10-14T20:17:34.128Z,29.67
2017-10-14T20:20:00.857Z,178.93
2017-10-14T20:22:27.508Z,90.13
2017-10-14T20:24:54.151Z,42.77
2017-10-14T20:27:20.851Z,30.70
2017-10-14T20:29:47.502Z,31.27
2017-10-14T20:32:14.158Z,33.07
2017-10-14T20:34:40.844Z,38.10
2017-10-14T20:37:07.523Z,36.87
2017-10-14T20:39:34.198Z,35.97
2017-10-14T20:42:00.852Z,30.03
2017-10-14T20:44:27.505Z,26.63
2017-10-14T20:46:54.173Z,26.10
2017-10-14T20:49:20.836Z,31.63
2017-10-14T20:51:47.502Z,32.07
2017-10-14T20:54:14.181Z,34.93
2017-10-14T20:56:40.853Z,31.07
2017-10-14T20:59:07.525Z,38.63
2017-10-14T21:01:34.203Z,35.13
2017-10-14T21:04:00.876Z,34.87
2017-10-14T21:06:27.524Z,37.53
2017-10-14T21:08:54.206Z,36.73
2017-10-14T21:11:20.858Z,33.43
2017-10-14T21:13:47.536Z,34.87
2017-10-14T21:16:14.203Z,34.50
2017-10-14T21:18:40.875Z,33.03
2017-10-14T21:21:07.533Z,32.73
2017-10-14T21:23:34.214Z,33.07
2017-10-14T21:26:00.868Z,32.53
2017-10-14T21:28:27.543Z,39.93
2017-10-14T21:30:54.255Z,33.03
2017-10-14T21:33:20.910Z,28.00
2017-10-14T21:35:47.579Z,36.40
2017-10-14T21:38:14.268Z,63.27
2017-10-14T21:40:40.928Z,68.57
2017-10-14T21:43:07.578Z,37.43
2017-10-14T21:45:34.253Z,70.90
2017-10-14T21:48:00.920Z,60.13
2017-10-14T21:50:27.560Z,48.07
2017-10-14T21:52:54.237Z,45.57
2017-10-14T21:55:20.889Z,43.57
2017-10-14T21:57:47.544Z,42.30
2017-10-14T22:00:14.213Z,62.47
2017-10-14T22:02:40.893Z,42.93
2017-10-14T22:05:07.569Z,35.93
2017-10-14T22:07:34.262Z,53.33
2017-10-14T22:10:01.131Z,88.87
2017-10-14T22:12:27.784Z,52.47
2017-10-14T22:14:54.456Z,47.00
2017-10-14T22:17:21.128Z,40.43
2017-10-14T22:19:47.779Z,60.30
2017-10-14T22:22:14.428Z,68.50
2017-10-14T22:24:41.113Z,52.33
2017-10-14T22:27:07.766Z,55.37
2017-10-14T22:29:34.440Z,42.37
2017-10-14T22:32:01.086Z,47.13
2017-10-14T22:34:27.756Z,43.17
2017-10-14T22:36:54.427Z,44.20
2017-10-14T22:39:21.076Z,35.77
2017-10-14T22:41:47.757Z,44.60
2017-10-14T22:44:14.421Z,42.27
2017-10-14T22:46:41.104Z,40.80
2017-10-14T22:49:07.763Z,55.50
2017-10-14T22:51:34.524Z,47.63
2017-10-14T22:54:01.195Z,44.07
2017-10-14T22:56:27.852Z,41.70
2017-10-14T22:58:54.530Z,44.50
2017-10-14T23:01:21.187Z,58.83
2017-10-14T23:03:47.884Z,47.17
2017-10-14T23:06:14.610Z,75.93
2017-10-14T23:08:41.277Z,82.27
2017-10-14T23:11:07.988Z,115.10
2017-10-14T23:13:34.635Z,104.13
2017-10-14T23:16:01.284Z,85.67
2017-10-14T23:18:27.952Z,73.57
2017-10-14T23:20:54.600Z,66.93
2017-10-14T23:23:21.311Z,57.50
2017-10-14T23:25:47.968Z,60.53
2017-10-14T23:28:14.625Z,67.40
2017-10-14T23:30:41.299Z,69.10
2017-10-14T23:33:07.976Z,62.77
2017-10-14T23:35:34.645Z,54.33
2017-10-14T23:38:01.297Z,52.73
2017-10-14T23:40:28.016Z,50.17
2017-10-14T23:42:54.664Z,46.23
2017-10-14T23:45:21.315Z,62.07
2017-10-14T23:47:47.989Z,58.20
2017-10-14T23:50:14.646Z,46.80
2017-10-14T23:52:41.320Z,55.97
2017-10-14T23:55:07.971Z,46.27
2017-10-14T23:57:34.656Z,49.50
